Time;durP1;ratioP1;P1;durP2;ratioP2;P2;SDS_P1;SDS_P2;PMS_P1;PMS_P2;Temp;Humidity;BMP_temperature;BMP_pressure;BME280_temperature;BME280_humidity;BME280_pressure;Samples;Min_cycle;Max_cycle;Signal;HPM_P1;HPM_P2
2022/02/13 00:00:57;;;;;;;17.27;7.78;;;;;;;;;;5064695;28;20036;-66
2022/02/13 00:03:43;;;;;;;17.33;7.72;;;;;;;;;;5065091;28;20043;-65
2022/02/13 00:06:28;;;;;;;18.17;8.18;;;;;;;;;;5070018;28;20039;-65
2022/02/13 00:09:13;;;;;;;12.85;7.47;;;;;;;;;;5062824;28;20488;-67
2022/02/13 00:12:00;;;;;;;13.88;7.85;;;;;;;;;;5067254;28;20033;-66
2022/02/13 00:14:45;;;;;;;18.27;9.60;;;;;;;;;;5067592;28;20032;-66
2022/02/13 00:17:30;;;;;;;15.73;8.27;;;;;;;;;;5066455;28;20360;-65
2022/02/13 00:20:15;;;;;;;15.75;8.38;;;;;;;;;;5067659;28;20036;-65
2022/02/13 00:23:01;;;;;;;15.05;8.07;;;;;;;;;;5065106;28;20046;-67
2022/02/13 00:25:46;;;;;;;12.60;8.07;;;;;;;;;;5066530;28;20045;-66
2022/02/13 00:28:36;;;;;;;14.13;7.85;;;;;;;;;;5063757;28;20044;-65
2022/02/13 00:31:21;;;;;;;14.63;8.30;;;;;;;;;;5066680;28;20211;-65
2022/02/13 00:34:06;;;;;;;16.25;8.23;;;;;;;;;;5062548;28;20020;-66
2022/02/13 00:36:51;;;;;;;13.52;7.97;;;;;;;;;;5066891;28;20390;-65
2022/02/13 00:39:37;;;;;;;14.65;7.88;;;;;;;;;;5067118;28;20035;-64
2022/02/13 00:42:22;;;;;;;14.75;8.60;;;;;;;;;;5052014;28;20024;-64
2022/02/13 00:45:08;;;;;;;11.90;7.68;;;;;;;;;;5067685;28;20023;-66
2022/02/13 00:47:53;;;;;;;15.20;8.85;;;;;;;;;;5063711;28;20036;-66
2022/02/13 00:50:39;;;;;;;15.05;7.50;;;;;;;;;;5067670;28;20093;-65
2022/02/13 00:53:24;;;;;;;11.13;7.07;;;;;;;;;;5062711;28;20472;-65
2022/02/13 00:56:10;;;;;;;15.23;7.68;;;;;;;;;;5066319;28;20028;-63
2022/02/13 00:58:55;;;;;;;20.40;9.68;;;;;;;;;;5048168;28;20060;-62
2022/02/13 01:01:40;;;;;;;15.05;8.30;;;;;;;;;;5056913;28;20031;-62
2022/02/13 01:04:26;;;;;;;13.38;8.32;;;;;;;;;;5061528;28;20491;-63
2022/02/13 01:07:11;;;;;;;15.43;7.75;;;;;;;;;;5077404;28;20155;-64
2022/02/13 01:09:56;;;;;;;12.60;8.75;;;;;;;;;;5067090;28;20082;-62
2022/02/13 01:12:41;;;;;;;18.13;8.02;;;;;;;;;;5048256;28;20033;-64
2022/02/13 01:15:27;;;;;;;13.82;7.47;;;;;;;;;;5048242;28;20098;-63
2022/02/13 01:18:12;;;;;;;16.10;8.48;;;;;;;;;;5049326;28;20032;-63
2022/02/13 01:20:59;;;;;;;14.32;8.70;;;;;;;;;;5068200;28;20029;-63
2022/02/13 01:23:44;;;;;;;12.02;7.55;;;;;;;;;;5065243;28;20051;-62
2022/02/13 01:26:29;;;;;;;15.20;7.90;;;;;;;;;;5067491;28;20052;-64
2022/02/13 01:29:14;;;;;;;12.95;7.72;;;;;;;;;;5065238;28;20043;-62
2022/02/13 01:32:00;;;;;;;14.88;8.13;;;;;;;;;;5071383;28;20471;-61
2022/02/13 01:34:45;;;;;;;14.27;7.93;;;;;;;;;;5070690;28;20036;-64
2022/02/13 01:37:30;;;;;;;13.70;7.90;;;;;;;;;;5075475;28;20043;-63
2022/02/13 01:40:16;;;;;;;12.15;7.70;;;;;;;;;;5062459;28;20557;-63
2022/02/13 01:43:01;;;;;;;13.60;7.47;;;;;;;;;;5051699;28;20078;-63
2022/02/13 01:45:46;;;;;;;15.25;8.65;;;;;;;;;;5064952;28;20140;-63
2022/02/13 01:48:32;;;;;;;13.75;8.32;;;;;;;;;;5069914;28;20036;-63
2022/02/13 01:51:17;;;;;;;12.13;8.60;;;;;;;;;;5069400;28;20052;-65
2022/02/13 01:54:02;;;;;;;13.27;7.90;;;;;;;;;;5053418;28;20487;-63
2022/02/13 01:56:47;;;;;;;17.27;8.07;;;;;;;;;;5070116;28;20033;-62
2022/02/13 01:59:34;;;;;;;12.75;7.63;;;;;;;;;;5064755;28;20024;-64
2022/02/13 02:02:19;;;;;;;13.77;7.65;;;;;;;;;;5055889;28;20491;-64
2022/02/13 02:05:04;;;;;;;15.00;8.45;;;;;;;;;;5077954;28;20032;-64
2022/02/13 02:07:50;;;;;;;14.55;9.13;;;;;;;;;;5076102;28;20063;-63
2022/02/13 02:10:36;;;;;;;12.98;8.02;;;;;;;;;;5060641;28;20028;-66
2022/02/13 02:13:22;;;;;;;14.57;8.43;;;;;;;;;;5070744;28;20040;-63
2022/02/13 02:16:08;;;;;;;13.55;8.82;;;;;;;;;;5069745;28;20494;-66
2022/02/13 02:18:53;;;;;;;14.73;7.85;;;;;;;;;;5052401;28;20068;-64
2022/02/13 02:21:42;;;;;;;13.35;7.57;;;;;;;;;;5045659;28;20037;-64
2022/02/13 02:24:27;;;;;;;13.07;8.07;;;;;;;;;;5074245;28;20029;-66
2022/02/13 02:27:13;;;;;;;13.65;8.10;;;;;;;;;;5041212;28;20373;-65
2022/02/13 02:29:58;;;;;;;13.05;8.25;;;;;;;;;;5050992;28;20103;-64
2022/02/13 02:32:44;;;;;;;11.63;7.18;;;;;;;;;;5079338;28;20046;-64
2022/02/13 02:35:30;;;;;;;14.38;7.65;;;;;;;;;;5070618;28;20041;-64
2022/02/13 02:38:16;;;;;;;15.48;7.18;;;;;;;;;;5055790;28;20033;-64
2022/02/13 02:41:01;;;;;;;12.70;7.60;;;;;;;;;;5050228;28;20037;-65
2022/02/13 02:43:46;;;;;;;13.70;8.52;;;;;;;;;;5052308;28;20029;-65
2022/02/13 02:46:31;;;;;;;12.52;7.47;;;;;;;;;;5049983;28;20032;-65
2022/02/13 02:49:17;;;;;;;12.10;7.22;;;;;;;;;;5057008;28;20044;-63
2022/02/13 02:52:02;;;;;;;13.57;8.70;;;;;;;;;;5046541;28;20025;-63
2022/02/13 02:54:47;;;;;;;13.35;8.07;;;;;;;;;;5083503;28;20028;-65
2022/02/13 02:57:33;;;;;;;15.30;8.43;;;;;;;;;;5057606;28;20024;-65
2022/02/13 03:00:18;;;;;;;14.73;7.82;;;;;;;;;;5069731;28;20024;-65
2022/02/13 03:03:03;;;;;;;14.98;8.32;;;;;;;;;;5068896;28;20020;-63
2022/02/13 03:05:49;;;;;;;14.02;8.27;;;;;;;;;;5067745;28;20140;-66
2022/02/13 03:08:34;;;;;;;17.75;8.32;;;;;;;;;;5067484;28;20055;-64
2022/02/13 03:11:19;;;;;;;15.82;7.50;;;;;;;;;;5056461;28;20120;-65
2022/02/13 03:14:04;;;;;;;15.10;8.32;;;;;;;;;;5062815;28;20032;-63
2022/02/13 03:16:50;;;;;;;12.82;7.85;;;;;;;;;;5071292;28;20040;-62
2022/02/13 03:19:36;;;;;;;15.65;9.13;;;;;;;;;;5065116;28;20036;-64
2022/02/13 03:22:21;;;;;;;12.95;7.50;;;;;;;;;;5065731;28;20028;-64
2022/02/13 03:25:06;;;;;;;14.65;8.38;;;;;;;;;;5068169;28;20068;-64
2022/02/13 03:27:52;;;;;;;15.88;7.50;;;;;;;;;;5067250;28;20387;-63
2022/02/13 03:30:37;;;;;;;13.40;7.95;;;;;;;;;;5064565;28;20488;-64
2022/02/13 03:33:22;;;;;;;14.20;8.02;;;;;;;;;;5049759;28;20129;-64
2022/02/13 03:36:07;;;;;;;13.48;8.10;;;;;;;;;;5076294;28;20062;-67
2022/02/13 03:38:53;;;;;;;13.27;7.82;;;;;;;;;;5068164;28;20039;-64
2022/02/13 03:41:38;;;;;;;14.82;8.93;;;;;;;;;;5068666;28;20043;-64
2022/02/13 03:44:23;;;;;;;13.60;7.97;;;;;;;;;;5068405;28;20424;-63
2022/02/13 03:47:08;;;;;;;13.63;8.80;;;;;;;;;;5048942;28;20032;-62
2022/02/13 03:49:54;;;;;;;12.63;7.80;;;;;;;;;;5042351;28;20475;-63
2022/02/13 03:52:39;;;;;;;13.52;7.28;;;;;;;;;;5048455;28;20487;-65
2022/02/13 03:55:24;;;;;;;12.02;7.47;;;;;;;;;;5080161;28;20526;-64
2022/02/13 03:58:09;;;;;;;12.43;7.10;;;;;;;;;;5054802;28;20036;-64
2022/02/13 04:00:55;;;;;;;16.45;7.07;;;;;;;;;;5065560;28;20032;-65
2022/02/13 04:03:40;;;;;;;11.88;7.53;;;;;;;;;;5069006;28;20032;-63
2022/02/13 04:06:25;;;;;;;10.75;6.63;;;;;;;;;;5066727;28;20046;-65
2022/02/13 04:09:10;;;;;;;13.05;8.35;;;;;;;;;;5048857;28;20033;-62
2022/02/13 04:11:56;;;;;;;10.27;6.32;;;;;;;;;;5066724;28;20429;-65
2022/02/13 04:14:41;;;;;;;11.98;7.15;;;;;;;;;;5066928;28;20028;-67
2022/02/13 04:17:26;;;;;;;13.35;6.93;;;;;;;;;;5034705;28;20052;-63
2022/02/13 04:20:12;;;;;;;12.90;7.03;;;;;;;;;;5049360;28;20021;-65
2022/02/13 04:22:57;;;;;;;14.10;7.53;;;;;;;;;;5048964;28;20363;-65
2022/02/13 04:25:42;;;;;;;15.43;8.25;;;;;;;;;;5057816;28;20123;-62
2022/02/13 04:28:28;;;;;;;11.25;7.32;;;;;;;;;;5076031;28;20036;-63
2022/02/13 04:31:13;;;;;;;11.30;6.43;;;;;;;;;;5067342;28;20070;-61
2022/02/13 04:33:58;;;;;;;11.55;6.63;;;;;;;;;;5082787;28;20032;-63
2022/02/13 04:36:43;;;;;;;10.45;6.28;;;;;;;;;;5068546;28;20115;-61
2022/02/13 04:39:29;;;;;;;12.90;6.40;;;;;;;;;;5049534;28;20029;-64
2022/02/13 04:42:14;;;;;;;12.77;7.38;;;;;;;;;;5058134;28;20368;-64
2022/02/13 04:44:59;;;;;;;11.20;7.50;;;;;;;;;;5068424;28;20562;-64
2022/02/13 04:47:45;;;;;;;13.88;7.88;;;;;;;;;;5054504;28;20033;-65
2022/02/13 04:50:30;;;;;;;13.00;6.82;;;;;;;;;;5053029;28;20158;-63
2022/02/13 04:53:15;;;;;;;11.68;6.97;;;;;;;;;;5063229;28;20021;-65
2022/02/13 04:56:00;;;;;;;16.83;8.68;;;;;;;;;;5065384;28;20134;-65
2022/02/13 04:58:46;;;;;;;13.07;7.70;;;;;;;;;;5067099;28;20108;-65
2022/02/13 05:01:31;;;;;;;13.73;7.68;;;;;;;;;;5057478;28;20032;-64
2022/02/13 05:04:17;;;;;;;10.95;6.53;;;;;;;;;;5065575;28;20029;-64
2022/02/13 05:07:03;;;;;;;10.45;6.32;;;;;;;;;;5051851;28;20090;-62
2022/02/13 05:09:48;;;;;;;12.32;6.25;;;;;;;;;;5082014;28;20029;-62
2022/02/13 05:12:33;;;;;;;11.52;6.63;;;;;;;;;;5054643;28;20106;-63
2022/02/13 05:15:21;;;;;;;12.43;7.10;;;;;;;;;;5063746;28;20052;-63
2022/02/13 05:18:06;;;;;;;12.85;8.13;;;;;;;;;;5057197;28;20444;-63
2022/02/13 05:20:52;;;;;;;14.13;8.23;;;;;;;;;;5078558;28;20170;-63
2022/02/13 05:23:37;;;;;;;11.27;7.15;;;;;;;;;;5059948;28;20028;-63
2022/02/13 05:26:22;;;;;;;12.23;6.85;;;;;;;;;;5054663;28;20053;-62
2022/02/13 05:29:09;;;;;;;15.15;7.53;;;;;;;;;;5063555;28;20384;-64
2022/02/13 05:31:54;;;;;;;12.93;7.32;;;;;;;;;;5071460;28;20036;-65
2022/02/13 05:34:39;;;;;;;15.35;7.45;;;;;;;;;;5069661;28;20032;-64
2022/02/13 05:37:24;;;;;;;13.55;7.07;;;;;;;;;;5053190;28;20094;-62
2022/02/13 05:40:10;;;;;;;11.63;6.82;;;;;;;;;;5068218;28;20614;-63
2022/02/13 05:42:55;;;;;;;12.98;6.20;;;;;;;;;;5077696;28;20467;-63
2022/02/13 05:45:40;;;;;;;12.05;6.60;;;;;;;;;;5068852;28;20313;-63
2022/02/13 05:48:26;;;;;;;13.77;6.57;;;;;;;;;;5051205;28;20039;-62
2022/02/13 05:51:12;;;;;;;10.90;5.63;;;;;;;;;;5039382;28;20025;-64
2022/02/13 05:53:57;;;;;;;13.23;6.75;;;;;;;;;;5052200;28;20025;-64
2022/02/13 05:56:44;;;;;;;10.35;6.20;;;;;;;;;;5069915;28;20029;-63
2022/02/13 05:59:29;;;;;;;12.07;7.00;;;;;;;;;;5069846;28;20097;-63
2022/02/13 06:02:14;;;;;;;12.40;6.43;;;;;;;;;;5068296;28;20074;-63
2022/02/13 06:05:00;;;;;;;10.02;6.53;;;;;;;;;;5073269;28;20036;-62
2022/02/13 06:07:45;;;;;;;11.68;7.07;;;;;;;;;;5070807;28;20032;-65
2022/02/13 06:10:30;;;;;;;12.15;6.70;;;;;;;;;;5059799;28;20047;-62
2022/02/13 06:13:15;;;;;;;9.85;5.85;;;;;;;;;;5081334;28;20044;-64
2022/02/13 06:16:01;;;;;;;12.30;6.63;;;;;;;;;;5037711;28;20029;-64
2022/02/13 06:18:46;;;;;;;13.30;7.28;;;;;;;;;;5052037;28;20116;-63
2022/02/13 06:21:32;;;;;;;13.45;7.50;;;;;;;;;;5057678;28;20032;-62
2022/02/13 06:24:17;;;;;;;15.98;7.18;;;;;;;;;;5050462;28;20036;-65
2022/02/13 06:27:03;;;;;;;16.02;7.47;;;;;;;;;;5066772;28;20522;-62
2022/02/13 06:29:49;;;;;;;10.40;6.40;;;;;;;;;;5067584;28;20132;-62
2022/02/13 06:32:34;;;;;;;14.98;7.85;;;;;;;;;;5069415;28;20119;-62
2022/02/13 06:35:20;;;;;;;10.27;5.95;;;;;;;;;;5052539;28;20067;-61
2022/02/13 06:38:09;;;;;;;13.27;7.00;;;;;;;;;;5051268;28;20033;-62
2022/02/13 06:40:54;;;;;;;11.52;6.65;;;;;;;;;;5069600;28;20035;-62
2022/02/13 06:43:39;;;;;;;12.15;6.70;;;;;;;;;;5074017;28;20044;-63
2022/02/13 06:46:24;;;;;;;11.02;6.25;;;;;;;;;;5068650;28;20054;-61
2022/02/13 06:49:10;;;;;;;11.35;5.45;;;;;;;;;;5076017;28;20504;-64
2022/02/13 06:51:55;;;;;;;11.05;6.53;;;;;;;;;;5069360;28;20066;-64
2022/02/13 06:54:40;;;;;;;13.80;6.50;;;;;;;;;;5051705;28;20078;-64
2022/02/13 06:57:26;;;;;;;17.27;7.70;;;;;;;;;;5053979;28;20047;-64
2022/02/13 07:00:12;;;;;;;11.98;6.35;;;;;;;;;;5053405;28;20534;-65
2022/02/13 07:02:57;;;;;;;11.43;5.90;;;;;;;;;;5076974;28;20460;-63
2022/02/13 07:05:42;;;;;;;12.25;6.40;;;;;;;;;;5079669;28;20032;-65
2022/02/13 07:08:28;;;;;;;10.18;5.63;;;;;;;;;;5071128;28;20028;-67
2022/02/13 07:11:13;;;;;;;11.43;6.25;;;;;;;;;;5046411;28;20027;-62
2022/02/13 07:13:59;;;;;;;11.32;6.10;;;;;;;;;;5067780;28;20114;-63
2022/02/13 07:16:44;;;;;;;11.52;6.25;;;;;;;;;;5079004;28;20021;-62
2022/02/13 07:19:29;;;;;;;11.20;5.53;;;;;;;;;;5049540;28;20424;-63
2022/02/13 07:22:14;;;;;;;12.40;6.60;;;;;;;;;;5053571;28;20029;-64
2022/02/13 07:25:00;;;;;;;13.88;6.35;;;;;;;;;;5081447;28;20048;-63
2022/02/13 07:27:45;;;;;;;11.93;6.50;;;;;;;;;;5065748;28;20037;-64
2022/02/13 07:30:30;;;;;;;11.85;6.13;;;;;;;;;;5066577;28;20479;-63
2022/02/13 07:33:15;;;;;;;14.82;6.13;;;;;;;;;;5067616;28;20070;-63
2022/02/13 07:36:01;;;;;;;11.00;6.15;;;;;;;;;;5068226;28;20036;-64
2022/02/13 07:38:46;;;;;;;11.63;5.93;;;;;;;;;;5062328;28;20093;-64
2022/02/13 07:41:32;;;;;;;11.63;5.90;;;;;;;;;;5054531;28;20032;-63
2022/02/13 07:44:17;;;;;;;11.50;6.03;;;;;;;;;;5067186;28;20056;-63
2022/02/13 07:47:03;;;;;;;11.85;6.00;;;;;;;;;;5061612;28;20032;-63
2022/02/13 07:49:48;;;;;;;14.27;6.88;;;;;;;;;;5066362;28;20040;-62
2022/02/13 07:52:36;;;;;;;10.45;5.50;;;;;;;;;;5063997;28;20017;-63
2022/02/13 07:55:21;;;;;;;10.98;5.60;;;;;;;;;;5061997;28;20029;-64
2022/02/13 07:58:07;;;;;;;11.65;5.72;;;;;;;;;;5066817;28;20039;-64
2022/02/13 08:00:52;;;;;;;10.70;5.95;;;;;;;;;;5061419;28;20036;-63
2022/02/13 08:03:37;;;;;;;11.40;4.97;;;;;;;;;;5065115;28;20412;-63
2022/02/13 08:06:23;;;;;;;12.75;7.32;;;;;;;;;;5061335;28;20037;-62
2022/02/13 08:09:09;;;;;;;10.50;5.70;;;;;;;;;;5056379;28;20036;-63
2022/02/13 08:11:54;;;;;;;10.80;5.53;;;;;;;;;;5059378;28;20029;-61
2022/02/13 08:14:39;;;;;;;10.35;5.47;;;;;;;;;;5067588;28;20028;-61
2022/02/13 08:17:26;;;;;;;10.70;5.97;;;;;;;;;;5068805;28;20035;-60
2022/02/13 08:20:14;;;;;;;13.23;7.22;;;;;;;;;;5067917;28;20075;-62
2022/02/13 08:22:59;;;;;;;12.18;6.13;;;;;;;;;;5081354;28;20036;-65
2022/02/13 08:25:44;;;;;;;11.77;5.43;;;;;;;;;;5049842;28;20046;-63
2022/02/13 08:28:31;;;;;;;12.73;6.82;;;;;;;;;;5041328;28;20040;-64
2022/02/13 08:31:16;;;;;;;11.43;6.38;;;;;;;;;;5053357;28;20059;-66
2022/02/13 08:34:02;;;;;;;10.35;4.93;;;;;;;;;;5054594;28;20028;-65
2022/02/13 08:36:48;;;;;;;13.68;5.65;;;;;;;;;;5062397;28;20024;-62
2022/02/13 08:39:33;;;;;;;11.93;5.40;;;;;;;;;;5054083;28;20123;-64
2022/02/13 08:42:18;;;;;;;9.23;5.07;;;;;;;;;;5052602;28;20115;-63
2022/02/13 08:45:03;;;;;;;14.48;5.65;;;;;;;;;;5056879;28;20043;-62
2022/02/13 08:47:49;;;;;;;14.30;7.03;;;;;;;;;;5059259;28;20115;-63
2022/02/13 08:50:34;;;;;;;12.30;5.97;;;;;;;;;;5060486;28;20032;-64
2022/02/13 08:53:20;;;;;;;13.45;6.20;;;;;;;;;;5052687;28;20063;-64
2022/02/13 08:56:06;;;;;;;10.85;5.10;;;;;;;;;;5065907;28;20033;-65
2022/02/13 08:58:53;;;;;;;13.05;6.32;;;;;;;;;;5048141;28;20037;-63
2022/02/13 09:01:38;;;;;;;10.15;5.97;;;;;;;;;;5058404;28;20032;-62
2022/02/13 09:04:23;;;;;;;13.15;5.75;;;;;;;;;;5082427;28;20035;-62
2022/02/13 09:07:10;;;;;;;12.00;5.63;;;;;;;;;;5054838;28;20058;-63
2022/02/13 09:09:55;;;;;;;11.77;6.05;;;;;;;;;;5066539;28;20020;-62
2022/02/13 09:12:40;;;;;;;11.93;6.47;;;;;;;;;;5067076;28;20139;-64
2022/02/13 09:15:28;;;;;;;13.75;6.55;;;;;;;;;;5067749;28;20491;-63
2022/02/13 09:18:13;;;;;;;13.10;6.80;;;;;;;;;;5053953;28;20037;-63
2022/02/13 09:20:58;;;;;;;13.07;6.07;;;;;;;;;;5047903;28;20024;-65
2022/02/13 09:23:43;;;;;;;13.90;6.45;;;;;;;;;;5062872;28;20119;-63
2022/02/13 09:26:29;;;;;;;9.73;5.45;;;;;;;;;;5067376;28;20056;-65
2022/02/13 09:29:14;;;;;;;11.68;5.80;;;;;;;;;;5061909;28;20020;-64
2022/02/13 09:32:00;;;;;;;15.65;5.88;;;;;;;;;;5056491;28;20449;-66
2022/02/13 09:34:45;;;;;;;11.07;5.93;;;;;;;;;;5052219;28;20025;-66
2022/02/13 09:37:30;;;;;;;16.25;8.05;;;;;;;;;;5065393;28;20063;-64
2022/02/13 09:40:16;;;;;;;13.43;6.25;;;;;;;;;;5081911;28;20028;-64
2022/02/13 09:43:02;;;;;;;13.95;5.60;;;;;;;;;;5080737;28;20032;-65
2022/02/13 09:45:51;;;;;;;9.77;5.43;;;;;;;;;;5081687;28;20029;-61
2022/02/13 09:48:37;;;;;;;13.32;6.10;;;;;;;;;;5080802;28;20036;-63
2022/02/13 09:51:22;;;;;;;10.52;5.75;;;;;;;;;;5071217;28;20043;-62
2022/02/13 09:54:07;;;;;;;9.68;5.22;;;;;;;;;;5064184;28;20100;-62
2022/02/13 09:57:59;;;;;;;11.02;5.65;;;;;;;;;;5055239;28;20028;-61
2022/02/13 09:59:59;;;;;;;10.40;5.20;;;;;;;;;;5070122;28;20379;-62
2022/02/13 10:02:45;;;;;;;10.10;5.20;;;;;;;;;;5050713;28;20032;-63
2022/02/13 10:05:30;;;;;;;16.98;5.97;;;;;;;;;;5077393;28;20115;-63
2022/02/13 10:08:32;;;;;;;11.15;6.03;;;;;;;;;;5091613;28;20451;-64
2022/02/13 10:11:23;;;;;;;12.93;5.53;;;;;;;;;;5051086;28;20103;-66
2022/02/13 10:14:15;;;;;;;13.38;5.85;;;;;;;;;;5059340;28;20064;-62
2022/02/13 10:17:00;;;;;;;10.75;4.93;;;;;;;;;;5084950;28;20094;-64
2022/02/13 10:19:52;;;;;;;13.30;6.18;;;;;;;;;;5083904;28;20383;-64
2022/02/13 10:22:38;;;;;;;10.85;5.65;;;;;;;;;;5070943;28;20043;-63
2022/02/13 10:25:24;;;;;;;10.95;6.63;;;;;;;;;;5060290;28;20340;-63
2022/02/13 10:28:16;;;;;;;11.52;8.13;;;;;;;;;;5055302;28;20025;-64
2022/02/13 10:31:03;;;;;;;16.85;15.23;;;;;;;;;;5067782;28;20020;-64
2022/02/13 10:33:58;;;;;;;23.10;21.38;;;;;;;;;;5070481;28;20059;-65
2022/02/13 10:36:46;;;;;;;20.83;19.05;;;;;;;;;;5069511;28;20070;-65
2022/02/13 10:39:42;;;;;;;29.35;27.17;;;;;;;;;;5070276;28;20387;-65
2022/02/13 10:42:28;;;;;;;23.33;21.63;;;;;;;;;;5050406;28;20024;-64
2022/02/13 10:45:18;;;;;;;9.32;5.63;;;;;;;;;;5051497;28;20123;-64
2022/02/13 10:48:04;;;;;;;11.30;5.30;;;;;;;;;;5080918;28;20384;-64
2022/02/13 10:50:50;;;;;;;12.07;5.13;;;;;;;;;;5055101;28;20043;-65
2022/02/13 10:53:35;;;;;;;8.88;5.45;;;;;;;;;;5070498;28;20064;-66
2022/02/13 10:56:20;;;;;;;15.45;6.03;;;;;;;;;;5069651;28;20186;-63
2022/02/13 10:59:10;;;;;;;11.68;5.10;;;;;;;;;;5050344;28;20032;-63
2022/02/13 11:01:55;;;;;;;8.57;4.93;;;;;;;;;;5064065;28;20032;-63
2022/02/13 11:04:41;;;;;;;11.40;5.47;;;;;;;;;;5072833;28;20124;-64
2022/02/13 11:07:26;;;;;;;11.18;5.53;;;;;;;;;;5059686;28;20085;-64
2022/02/13 11:10:13;;;;;;;11.43;5.95;;;;;;;;;;5069969;28;20016;-65
2022/02/13 11:12:59;;;;;;;14.38;5.93;;;;;;;;;;5069076;28;20092;-63
2022/02/13 11:15:45;;;;;;;11.32;6.15;;;;;;;;;;5036141;28;20089;-64
2022/02/13 11:18:31;;;;;;;17.42;6.70;;;;;;;;;;5068590;28;20039;-64
2022/02/13 11:21:17;;;;;;;10.98;5.75;;;;;;;;;;5061583;28;20051;-64
2022/02/13 11:24:02;;;;;;;10.00;5.07;;;;;;;;;;5035908;28;20025;-64
2022/02/13 11:26:48;;;;;;;11.50;5.55;;;;;;;;;;5049582;28;20053;-65
2022/02/13 11:29:51;;;;;;;10.18;5.28;;;;;;;;;;5066074;28;20020;-64
2022/02/13 11:32:38;;;;;;;11.90;5.05;;;;;;;;;;5068356;28;20372;-65
2022/02/13 11:35:43;;;;;;;11.50;5.43;;;;;;;;;;5083357;28;20387;-67
2022/02/13 11:38:47;;;;;;;12.57;5.00;;;;;;;;;;5076353;28;20459;-65
2022/02/13 11:41:51;;;;;;;11.25;4.85;;;;;;;;;;5067504;28;20562;-63
2022/02/13 11:44:38;;;;;;;9.98;4.80;;;;;;;;;;5068634;28;20387;-64
2022/02/13 11:47:38;;;;;;;11.75;4.88;;;;;;;;;;5082796;28;20506;-66
2022/02/13 11:50:26;;;;;;;;;;;;;;;;;;5049504;28;20534;-65
2022/02/13 11:53:23;;;;;;;9.02;4.43;;;;;;;;;;5053315;28;20274;-64
2022/02/13 11:56:27;;;;;;;11.45;4.55;;;;;;;;;;5083274;28;20020;-63
2022/02/13 11:59:13;;;;;;;9.65;3.75;;;;;;;;;;5058373;28;20383;-62
2022/02/13 12:01:58;;;;;;;9.80;4.55;;;;;;;;;;5068985;28;20028;-62
2022/02/13 12:05:02;;;;;;;7.80;3.85;;;;;;;;;;5069451;28;20047;-63
2022/02/13 12:07:47;;;;;;;11.50;4.88;;;;;;;;;;5054516;28;20037;-67
2022/02/13 12:10:37;;;;;;;9.40;3.75;;;;;;;;;;5061534;28;20028;-65
2022/02/13 12:13:22;;;;;;;9.65;3.92;;;;;;;;;;5069231;28;20393;-67
2022/02/13 12:16:07;;;;;;;11.75;3.78;;;;;;;;;;5061574;28;20109;-66
2022/02/13 12:18:52;;;;;;;8.95;3.97;;;;;;;;;;5057042;28;20022;-68
2022/02/13 12:21:37;;;;;;;13.70;4.15;;;;;;;;;;5052250;28;20043;-62
2022/02/13 12:24:26;;;;;;;11.55;4.28;;;;;;;;;;5061220;28;20035;-64
2022/02/13 12:27:12;;;;;;;9.38;3.90;;;;;;;;;;5055934;28;20041;-67
2022/02/13 12:29:58;;;;;;;10.77;3.30;;;;;;;;;;5053322;28;20028;-64
2022/02/13 12:32:44;;;;;;;9.43;4.07;;;;;;;;;;5059803;28;20472;-63
2022/02/13 12:35:31;;;;;;;11.60;4.20;;;;;;;;;;5058351;28;20033;-66
2022/02/13 12:38:16;;;;;;;6.55;3.88;;;;;;;;;;5050934;28;20024;-65
2022/02/13 12:41:02;;;;;;;8.57;4.53;;;;;;;;;;5060586;28;20138;-66
2022/02/13 12:43:47;;;;;;;7.25;4.05;;;;;;;;;;5061199;28;20033;-62
2022/02/13 12:46:32;;;;;;;11.52;3.75;;;;;;;;;;5051533;28;20067;-58
2022/02/13 12:49:17;;;;;;;8.90;3.92;;;;;;;;;;5063939;28;20064;-59
2022/02/13 12:52:04;;;;;;;7.57;4.20;;;;;;;;;;5055428;28;20487;-57
2022/02/13 12:54:49;;;;;;;8.05;4.05;;;;;;;;;;5062475;28;20029;-61
2022/02/13 12:57:35;;;;;;;8.68;4.10;;;;;;;;;;5062493;28;20368;-56
2022/02/13 13:00:24;;;;;;;8.52;4.50;;;;;;;;;;5056685;28;20033;-60
2022/02/13 13:03:13;;;;;;;9.27;3.85;;;;;;;;;;5054828;28;20051;-63
2022/02/13 13:06:01;;;;;;;10.30;3.87;;;;;;;;;;5064035;28;20032;-63
2022/02/13 13:08:46;;;;;;;7.55;3.83;;;;;;;;;;5052672;28;20676;-63
2022/02/13 13:11:32;;;;;;;11.27;4.25;;;;;;;;;;5037426;28;20548;-63
2022/02/13 13:14:20;;;;;;;7.75;3.78;;;;;;;;;;5048838;28;20024;-61
2022/02/13 13:17:06;;;;;;;9.40;3.58;;;;;;;;;;5058084;28;20081;-60
2022/02/13 13:19:51;;;;;;;10.93;4.18;;;;;;;;;;5068035;28;20430;-60
2022/02/13 13:22:37;;;;;;;7.38;3.60;;;;;;;;;;5058898;28;20040;-62
2022/02/13 13:25:29;;;;;;;14.02;4.10;;;;;;;;;;5058255;28;20488;-63
2022/02/13 13:28:15;;;;;;;8.35;4.07;;;;;;;;;;5064335;28;20063;-64
2022/02/13 13:31:05;;;;;;;10.75;3.88;;;;;;;;;;5052059;28;20028;-65
2022/02/13 13:34:00;;;;;;;11.50;4.03;;;;;;;;;;5071105;28;20047;-64
2022/02/13 13:36:46;;;;;;;7.78;3.72;;;;;;;;;;5070619;28;20542;-64
2022/02/13 13:39:34;;;;;;;7.90;4.03;;;;;;;;;;5086130;28;20025;-64
2022/02/13 13:42:19;;;;;;;8.18;3.50;;;;;;;;;;5070851;28;20047;-63
2022/02/13 13:45:04;;;;;;;7.43;3.70;;;;;;;;;;5085964;28;20208;-62
2022/02/13 13:47:50;;;;;;;8.63;3.75;;;;;;;;;;5084569;28;20044;-66
2022/02/13 13:50:37;;;;;;;6.05;3.60;;;;;;;;;;5057796;28;20125;-65
2022/02/13 13:53:25;;;;;;;7.80;3.58;;;;;;;;;;5084659;28;20035;-65
2022/02/13 13:56:11;;;;;;;9.20;3.87;;;;;;;;;;5077825;28;20104;-68
2022/02/13 13:58:56;;;;;;;11.52;3.90;;;;;;;;;;5070769;28;20503;-64
2022/02/13 14:01:42;;;;;;;8.50;3.53;;;;;;;;;;5080629;28;20071;-64
2022/02/13 14:04:27;;;;;;;9.43;3.45;;;;;;;;;;5066828;28;20541;-64
2022/02/13 14:07:12;;;;;;;9.25;4.00;;;;;;;;;;5091287;28;20147;-66
2022/02/13 14:09:57;;;;;;;8.18;3.80;;;;;;;;;;5072856;28;20369;-65
2022/02/13 14:12:43;;;;;;;6.30;3.00;;;;;;;;;;5063502;28;20032;-65
2022/02/13 14:15:28;;;;;;;8.23;3.63;;;;;;;;;;5084823;28;20032;-62
2022/02/13 14:18:14;;;;;;;8.70;3.33;;;;;;;;;;5070697;28;20495;-62
2022/02/13 14:20:59;;;;;;;6.97;3.30;;;;;;;;;;5065839;28;20086;-64
2022/02/13 14:23:44;;;;;;;9.20;3.45;;;;;;;;;;5068755;28;20119;-63
2022/02/13 14:26:30;;;;;;;8.45;3.40;;;;;;;;;;5039635;28;20095;-63
2022/02/13 14:29:15;;;;;;;7.18;3.38;;;;;;;;;;5070413;28;20056;-62
2022/02/13 14:32:03;;;;;;;6.28;2.83;;;;;;;;;;5079079;28;20510;-64
2022/02/13 14:34:49;;;;;;;7.72;2.70;;;;;;;;;;5070108;28;20028;-62
2022/02/13 14:37:34;;;;;;;7.95;2.97;;;;;;;;;;5084895;28;20104;-64
2022/02/13 14:40:19;;;;;;;10.75;3.58;;;;;;;;;;5060194;28;20032;-63
2022/02/13 14:43:05;;;;;;;8.10;3.10;;;;;;;;;;5059661;28;20033;-64
2022/02/13 14:45:51;;;;;;;9.05;3.08;;;;;;;;;;5069883;28;20040;-66
2022/02/13 14:48:36;;;;;;;7.65;3.22;;;;;;;;;;5070627;28;20034;-64
2022/02/13 14:51:21;;;;;;;10.95;3.47;;;;;;;;;;5069826;28;20035;-65
2022/02/13 14:54:06;;;;;;;9.68;3.42;;;;;;;;;;5084491;28;20024;-64
2022/02/13 14:56:52;;;;;;;10.07;3.08;;;;;;;;;;5082430;28;20086;-64
2022/02/13 14:59:37;;;;;;;5.63;2.60;;;;;;;;;;5070190;28;20067;-65
2022/02/13 15:02:22;;;;;;;6.30;2.97;;;;;;;;;;5050247;28;20033;-62
2022/02/13 15:05:08;;;;;;;6.03;3.22;;;;;;;;;;5061835;28;20032;-63
2022/02/13 15:07:53;;;;;;;7.38;3.30;;;;;;;;;;5036136;28;20036;-62
2022/02/13 15:10:39;;;;;;;11.57;2.80;;;;;;;;;;5053609;28;20032;-62
2022/02/13 15:13:24;;;;;;;5.25;2.75;;;;;;;;;;5075554;28;20086;-62
2022/02/13 15:16:09;;;;;;;9.50;2.75;;;;;;;;;;5069500;28;20103;-63
2022/02/13 15:18:55;;;;;;;9.43;3.13;;;;;;;;;;5081958;28;20090;-62
2022/02/13 15:21:40;;;;;;;9.60;2.92;;;;;;;;;;5069238;28;20040;-63
2022/02/13 15:24:25;;;;;;;9.38;2.92;;;;;;;;;;5069790;28;20075;-64
2022/02/13 15:27:13;;;;;;;5.28;2.30;;;;;;;;;;5068824;28;20042;-65
2022/02/13 15:29:58;;;;;;;6.47;3.00;;;;;;;;;;5049762;28;20071;-64
2022/02/13 15:32:43;;;;;;;6.90;2.63;;;;;;;;;;5062828;28;20032;-64
2022/02/13 15:35:28;;;;;;;8.40;2.92;;;;;;;;;;5069552;28;20043;-66
2022/02/13 15:38:14;;;;;;;7.32;2.80;;;;;;;;;;5068222;28;20074;-66
2022/02/13 15:40:59;;;;;;;6.20;3.33;;;;;;;;;;5069633;28;20455;-64
2022/02/13 15:43:44;;;;;;;9.30;2.97;;;;;;;;;;5050667;28;20537;-65
2022/02/13 15:46:29;;;;;;;8.80;2.40;;;;;;;;;;5049125;28;20040;-65
2022/02/13 15:49:14;;;;;;;6.68;2.45;;;;;;;;;;5066992;28;20039;-66
2022/02/13 15:52:00;;;;;;;6.63;2.35;;;;;;;;;;5068613;28;20475;-64
2022/02/13 15:54:45;;;;;;;6.10;3.30;;;;;;;;;;5078329;28;20111;-63
2022/02/13 15:57:30;;;;;;;8.27;3.15;;;;;;;;;;5059376;28;20036;-63
2022/02/13 16:00:16;;;;;;;8.90;2.88;;;;;;;;;;5083261;28;20032;-64
2022/02/13 16:03:01;;;;;;;7.90;3.45;;;;;;;;;;5053093;28;20032;-63
2022/02/13 16:05:46;;;;;;;11.75;3.28;;;;;;;;;;5086051;28;20148;-63
2022/02/13 16:08:31;;;;;;;14.02;2.72;;;;;;;;;;5068190;28;20036;-64
2022/02/13 16:11:18;;;;;;;7.05;2.63;;;;;;;;;;5069051;28;20029;-64
2022/02/13 16:14:03;;;;;;;13.60;3.17;;;;;;;;;;5052342;28;20036;-64
2022/02/13 16:16:48;;;;;;;8.68;3.50;;;;;;;;;;5045505;28;20550;-62
2022/02/13 16:19:34;;;;;;;6.60;2.78;;;;;;;;;;5071683;28;20476;-65
2022/02/13 16:22:20;;;;;;;9.43;3.00;;;;;;;;;;5062142;28;20060;-61
2022/02/13 16:25:06;;;;;;;10.27;3.40;;;;;;;;;;5059658;28;20496;-66